sensor_id;sensor_type;location;lat;lon;timestamp;temperature;humidity
49236;DHT22;35067;48.134;8.378;2022-11-25T00:00:44;1.40;99.90
49236;DHT22;35067;48.134;8.378;2022-11-25T00:02:45;1.30;99.90
49236;DHT22;35067;48.134;8.378;2022-11-25T00:04:45;1.30;99.90
49236;DHT22;35067;48.134;8.378;2022-11-25T00:06:46;1.30;99.90
49236;DHT22;35067;48.134;8.378;2022-11-25T00:08:58;1.20;99.90
49236;DHT22;35067;48.134;8.378;2022-11-25T00:11:01;1.30;99.90
49236;DHT22;35067;48.134;8.378;2022-11-25T00:13:01;1.30;99.90
49236;DHT22;35067;48.134;8.378;2022-11-25T00:15:03;1.30;99.90
49236;DHT22;35067;48.134;8.378;2022-11-25T00:17:04;1.40;99.90
49236;DHT22;35067;48.134;8.378;2022-11-25T00:19:05;1.50;99.90
49236;DHT22;35067;48.134;8.378;2022-11-25T00:21:08;1.50;99.90
49236;DHT22;35067;48.134;8.378;2022-11-25T00:23:09;1.40;99.90
49236;DHT22;35067;48.134;8.378;2022-11-25T00:25:10;1.40;99.90
49236;DHT22;35067;48.134;8.378;2022-11-25T00:27:11;1.30;99.90
49236;DHT22;35067;48.134;8.378;2022-11-25T00:29:12;1.30;99.90
49236;DHT22;35067;48.134;8.378;2022-11-25T00:31:14;1.30;99.90
49236;DHT22;35067;48.134;8.378;2022-11-25T00:33:16;1.30;99.90
49236;DHT22;35067;48.134;8.378;2022-11-25T00:35:17;1.40;99.90
49236;DHT22;35067;48.134;8.378;2022-11-25T00:37:18;1.40;99.90
49236;DHT22;35067;48.134;8.378;2022-11-25T00:39:19;1.50;99.90
49236;DHT22;35067;48.134;8.378;2022-11-25T00:41:24;1.50;99.90
49236;DHT22;35067;48.134;8.378;2022-11-25T00:43:43;1.50;99.90
49236;DHT22;35067;48.134;8.378;2022-11-25T00:46:02;1.60;99.90
49236;DHT22;35067;48.134;8.378;2022-11-25T00:48:03;1.50;99.90
49236;DHT22;35067;48.134;8.378;2022-11-25T00:50:05;1.60;99.90
49236;DHT22;35067;48.134;8.378;2022-11-25T00:52:06;1.70;99.90
49236;DHT22;35067;48.134;8.378;2022-11-25T00:54:08;1.70;99.90
49236;DHT22;35067;48.134;8.378;2022-11-25T00:56:09;1.60;99.90
49236;DHT22;35067;48.134;8.378;2022-11-25T00:58:12;1.60;99.90
49236;DHT22;35067;48.134;8.378;2022-11-25T01:00:13;1.60;99.90
49236;DHT22;35067;48.134;8.378;2022-11-25T01:02:15;1.60;99.90
49236;DHT22;35067;48.134;8.378;2022-11-25T01:04:16;1.50;99.90
49236;DHT22;35067;48.134;8.378;2022-11-25T01:06:17;1.60;99.90
49236;DHT22;35067;48.134;8.378;2022-11-25T01:08:18;1.60;99.90
49236;DHT22;35067;48.134;8.378;2022-11-25T01:10:19;1.60;99.90
49236;DHT22;35067;48.134;8.378;2022-11-25T01:12:20;1.70;99.90
49236;DHT22;35067;48.134;8.378;2022-11-25T01:14:21;1.70;99.90
49236;DHT22;35067;48.134;8.378;2022-11-25T01:16:22;1.70;99.90
49236;DHT22;35067;48.134;8.378;2022-11-25T01:18:23;1.70;99.90
49236;DHT22;35067;48.134;8.378;2022-11-25T01:20:24;1.80;99.90
49236;DHT22;35067;48.134;8.378;2022-11-25T01:22:24;1.90;99.90
49236;DHT22;35067;48.134;8.378;2022-11-25T01:24:25;1.90;99.90
49236;DHT22;35067;48.134;8.378;2022-11-25T01:26:26;1.80;99.90
49236;DHT22;35067;48.134;8.378;2022-11-25T01:28:28;1.80;99.90
49236;DHT22;35067;48.134;8.378;2022-11-25T01:30:29;1.80;99.90
49236;DHT22;35067;48.134;8.378;2022-11-25T01:32:29;1.70;99.90
49236;DHT22;35067;48.134;8.378;2022-11-25T01:34:30;1.70;99.90
49236;DHT22;35067;48.134;8.378;2022-11-25T01:36:31;1.70;99.90
49236;DHT22;35067;48.134;8.378;2022-11-25T01:38:32;1.70;99.90
49236;DHT22;35067;48.134;8.378;2022-11-25T01:40:34;1.80;99.90
49236;DHT22;35067;48.134;8.378;2022-11-25T01:42:47;1.80;99.90
49236;DHT22;35067;48.134;8.378;2022-11-25T01:47:31;1.80;99.90
49236;DHT22;35067;48.134;8.378;2022-11-25T01:49:39;1.70;99.90
49236;DHT22;35067;48.134;8.378;2022-11-25T01:52:09;1.70;99.90
49236;DHT22;35067;48.134;8.378;2022-11-25T01:54:16;1.70;99.90
49236;DHT22;35067;48.134;8.378;2022-11-25T01:56:19;1.70;99.90
49236;DHT22;35067;48.134;8.378;2022-11-25T01:58:31;1.70;99.90
49236;DHT22;35067;48.134;8.378;2022-11-25T02:00:33;1.80;99.90
49236;DHT22;35067;48.134;8.378;2022-11-25T02:02:34;1.80;99.90
49236;DHT22;35067;48.134;8.378;2022-11-25T02:04:38;1.80;99.90
49236;DHT22;35067;48.134;8.378;2022-11-25T02:06:46;1.80;99.90
49236;DHT22;35067;48.134;8.378;2022-11-25T02:08:54;1.80;99.90
49236;DHT22;35067;48.134;8.378;2022-11-25T02:10:57;1.60;99.90
49236;DHT22;35067;48.134;8.378;2022-11-25T02:12:58;1.60;99.90
49236;DHT22;35067;48.134;8.378;2022-11-25T02:14:59;1.60;99.90
49236;DHT22;35067;48.134;8.378;2022-11-25T02:17:01;1.50;99.90
49236;DHT22;35067;48.134;8.378;2022-11-25T02:19:02;1.50;99.90
49236;DHT22;35067;48.134;8.378;2022-11-25T02:21:03;1.60;99.90
49236;DHT22;35067;48.134;8.378;2022-11-25T02:25:16;1.30;99.90
49236;DHT22;35067;48.134;8.378;2022-11-25T02:27:20;1.40;99.90
49236;DHT22;35067;48.134;8.378;2022-11-25T02:29:20;1.30;99.90
49236;DHT22;35067;48.134;8.378;2022-11-25T02:31:22;1.50;99.90
49236;DHT22;35067;48.134;8.378;2022-11-25T02:33:24;1.60;99.90
49236;DHT22;35067;48.134;8.378;2022-11-25T02:37:41;1.60;99.90
49236;DHT22;35067;48.134;8.378;2022-11-25T02:39:41;1.60;99.90
49236;DHT22;35067;48.134;8.378;2022-11-25T02:41:51;1.60;99.90
49236;DHT22;35067;48.134;8.378;2022-11-25T02:43:54;1.50;99.90
49236;DHT22;35067;48.134;8.378;2022-11-25T02:48:05;1.70;99.90
49236;DHT22;35067;48.134;8.378;2022-11-25T02:50:06;1.80;99.90
49236;DHT22;35067;48.134;8.378;2022-11-25T02:52:07;1.70;99.90
49236;DHT22;35067;48.134;8.378;2022-11-25T02:54:08;1.80;99.90
49236;DHT22;35067;48.134;8.378;2022-11-25T02:56:10;1.80;99.90
49236;DHT22;35067;48.134;8.378;2022-11-25T02:58:13;1.80;99.90
49236;DHT22;35067;48.134;8.378;2022-11-25T03:00:14;1.90;99.90
49236;DHT22;35067;48.134;8.378;2022-11-25T03:02:15;1.80;99.90
49236;DHT22;35067;48.134;8.378;2022-11-25T03:04:16;1.90;99.90
49236;DHT22;35067;48.134;8.378;2022-11-25T03:06:17;1.90;99.90
49236;DHT22;35067;48.134;8.378;2022-11-25T03:08:18;1.90;99.90
49236;DHT22;35067;48.134;8.378;2022-11-25T03:10:18;1.70;99.90
49236;DHT22;35067;48.134;8.378;2022-11-25T03:12:19;1.70;99.90
49236;DHT22;35067;48.134;8.378;2022-11-25T03:14:20;1.80;99.90
49236;DHT22;35067;48.134;8.378;2022-11-25T03:16:20;1.80;99.90
49236;DHT22;35067;48.134;8.378;2022-11-25T03:18:21;1.90;99.90
49236;DHT22;35067;48.134;8.378;2022-11-25T03:20:22;1.80;99.90
49236;DHT22;35067;48.134;8.378;2022-11-25T03:22:24;1.70;99.90
49236;DHT22;35067;48.134;8.378;2022-11-25T03:24:32;1.80;99.90
49236;DHT22;35067;48.134;8.378;2022-11-25T03:26:33;1.80;99.90
49236;DHT22;35067;48.134;8.378;2022-11-25T03:28:34;1.90;99.90
49236;DHT22;35067;48.134;8.378;2022-11-25T03:30:35;1.90;99.90
49236;DHT22;35067;48.134;8.378;2022-11-25T03:32:35;2.10;99.90
49236;DHT22;35067;48.134;8.378;2022-11-25T03:34:36;2.20;99.90
49236;DHT22;35067;48.134;8.378;2022-11-25T03:36:37;2.20;99.90
49236;DHT22;35067;48.134;8.378;2022-11-25T03:38:38;2.10;99.90
49236;DHT22;35067;48.134;8.378;2022-11-25T03:40:39;2.00;99.90
49236;DHT22;35067;48.134;8.378;2022-11-25T03:42:40;1.90;99.90
49236;DHT22;35067;48.134;8.378;2022-11-25T03:44:41;1.90;99.90
49236;DHT22;35067;48.134;8.378;2022-11-25T03:46:42;1.90;99.90
49236;DHT22;35067;48.134;8.378;2022-11-25T03:48:42;1.90;99.90
49236;DHT22;35067;48.134;8.378;2022-11-25T03:50:43;1.80;99.90
49236;DHT22;35067;48.134;8.378;2022-11-25T03:52:44;1.90;99.90
49236;DHT22;35067;48.134;8.378;2022-11-25T03:54:45;1.90;99.90
49236;DHT22;35067;48.134;8.378;2022-11-25T03:56:45;1.90;99.90
49236;DHT22;35067;48.134;8.378;2022-11-25T03:58:46;1.90;99.90
49236;DHT22;35067;48.134;8.378;2022-11-25T04:00:47;1.80;99.90
49236;DHT22;35067;48.134;8.378;2022-11-25T04:02:48;1.80;99.90
49236;DHT22;35067;48.134;8.378;2022-11-25T04:04:48;1.80;99.90
49236;DHT22;35067;48.134;8.378;2022-11-25T04:06:49;1.80;99.90
49236;DHT22;35067;48.134;8.378;2022-11-25T04:08:50;1.90;99.90
49236;DHT22;35067;48.134;8.378;2022-11-25T04:10:51;2.00;99.90
49236;DHT22;35067;48.134;8.378;2022-11-25T04:12:52;2.00;99.90
49236;DHT22;35067;48.134;8.378;2022-11-25T04:14:53;2.00;99.90
49236;DHT22;35067;48.134;8.378;2022-11-25T04:16:53;2.00;99.90
49236;DHT22;35067;48.134;8.378;2022-11-25T04:18:54;2.00;99.90
49236;DHT22;35067;48.134;8.378;2022-11-25T04:20:55;2.00;99.90
49236;DHT22;35067;48.134;8.378;2022-11-25T04:22:55;2.00;99.90
49236;DHT22;35067;48.134;8.378;2022-11-25T04:24:56;2.00;99.90
49236;DHT22;35067;48.134;8.378;2022-11-25T04:26:57;2.10;99.90
49236;DHT22;35067;48.134;8.378;2022-11-25T04:28:57;2.00;99.90
49236;DHT22;35067;48.134;8.378;2022-11-25T04:30:58;2.00;99.90
49236;DHT22;35067;48.134;8.378;2022-11-25T04:33:00;2.00;99.90
49236;DHT22;35067;48.134;8.378;2022-11-25T04:35:01;2.00;99.90
49236;DHT22;35067;48.134;8.378;2022-11-25T04:37:01;2.10;99.90
49236;DHT22;35067;48.134;8.378;2022-11-25T04:39:03;1.90;99.90
49236;DHT22;35067;48.134;8.378;2022-11-25T04:41:04;1.90;99.90
49236;DHT22;35067;48.134;8.378;2022-11-25T04:43:05;1.90;99.90
49236;DHT22;35067;48.134;8.378;2022-11-25T04:45:13;1.90;99.90
49236;DHT22;35067;48.134;8.378;2022-11-25T04:47:15;1.90;99.90
49236;DHT22;35067;48.134;8.378;2022-11-25T04:49:15;1.90;99.90
49236;DHT22;35067;48.134;8.378;2022-11-25T04:51:16;2.00;99.90
49236;DHT22;35067;48.134;8.378;2022-11-25T04:53:17;2.00;99.90
49236;DHT22;35067;48.134;8.378;2022-11-25T04:55:17;1.90;99.90
49236;DHT22;35067;48.134;8.378;2022-11-25T04:57:18;2.00;99.90
49236;DHT22;35067;48.134;8.378;2022-11-25T04:59:19;2.10;99.90
49236;DHT22;35067;48.134;8.378;2022-11-25T05:01:38;2.00;99.90
49236;DHT22;35067;48.134;8.378;2022-11-25T05:03:39;1.90;99.90
49236;DHT22;35067;48.134;8.378;2022-11-25T05:05:39;1.80;99.90
49236;DHT22;35067;48.134;8.378;2022-11-25T05:07:40;1.80;99.90
49236;DHT22;35067;48.134;8.378;2022-11-25T05:09:41;1.80;99.90
49236;DHT22;35067;48.134;8.378;2022-11-25T05:11:42;1.80;99.90
49236;DHT22;35067;48.134;8.378;2022-11-25T05:13:43;1.70;99.90
49236;DHT22;35067;48.134;8.378;2022-11-25T05:15:44;1.60;99.90
49236;DHT22;35067;48.134;8.378;2022-11-25T05:17:45;1.60;99.90
49236;DHT22;35067;48.134;8.378;2022-11-25T05:19:46;1.50;99.90
49236;DHT22;35067;48.134;8.378;2022-11-25T05:21:47;1.50;99.90
49236;DHT22;35067;48.134;8.378;2022-11-25T05:23:47;1.40;99.90
49236;DHT22;35067;48.134;8.378;2022-11-25T05:25:48;1.40;99.90
49236;DHT22;35067;48.134;8.378;2022-11-25T05:27:49;1.40;99.90
49236;DHT22;35067;48.134;8.378;2022-11-25T05:29:50;1.40;99.90
49236;DHT22;35067;48.134;8.378;2022-11-25T05:31:50;1.40;99.90
49236;DHT22;35067;48.134;8.378;2022-11-25T05:33:51;1.40;99.90
49236;DHT22;35067;48.134;8.378;2022-11-25T05:35:56;1.40;99.90
49236;DHT22;35067;48.134;8.378;2022-11-25T05:37:58;1.40;99.90
49236;DHT22;35067;48.134;8.378;2022-11-25T05:40:00;1.40;99.90
49236;DHT22;35067;48.134;8.378;2022-11-25T05:42:01;1.40;99.90
49236;DHT22;35067;48.134;8.378;2022-11-25T05:44:02;1.40;99.90
49236;DHT22;35067;48.134;8.378;2022-11-25T05:46:08;1.40;99.90
49236;DHT22;35067;48.134;8.378;2022-11-25T05:48:09;1.40;99.90
49236;DHT22;35067;48.134;8.378;2022-11-25T05:50:10;1.50;99.90
49236;DHT22;35067;48.134;8.378;2022-11-25T05:52:10;1.50;99.90
49236;DHT22;35067;48.134;8.378;2022-11-25T05:54:11;1.50;99.90
49236;DHT22;35067;48.134;8.378;2022-11-25T05:56:12;1.60;99.90
49236;DHT22;35067;48.134;8.378;2022-11-25T05:58:13;1.60;99.90
49236;DHT22;35067;48.134;8.378;2022-11-25T06:00:14;1.60;99.90
49236;DHT22;35067;48.134;8.378;2022-11-25T06:02:15;1.80;99.90
49236;DHT22;35067;48.134;8.378;2022-11-25T06:04:15;1.80;99.90
49236;DHT22;35067;48.134;8.378;2022-11-25T06:06:16;1.70;99.90
49236;DHT22;35067;48.134;8.378;2022-11-25T06:08:17;1.80;99.90
49236;DHT22;35067;48.134;8.378;2022-11-25T06:10:18;1.80;99.90
49236;DHT22;35067;48.134;8.378;2022-11-25T06:12:22;1.90;99.90
49236;DHT22;35067;48.134;8.378;2022-11-25T06:14:22;1.80;99.90
49236;DHT22;35067;48.134;8.378;2022-11-25T06:16:24;1.80;99.90
49236;DHT22;35067;48.134;8.378;2022-11-25T06:18:25;1.80;99.90
49236;DHT22;35067;48.134;8.378;2022-11-25T06:20:26;1.70;99.90
49236;DHT22;35067;48.134;8.378;2022-11-25T06:22:26;1.70;99.90
49236;DHT22;35067;48.134;8.378;2022-11-25T06:24:27;1.60;99.90
49236;DHT22;35067;48.134;8.378;2022-11-25T06:26:29;1.50;99.90
49236;DHT22;35067;48.134;8.378;2022-11-25T06:28:30;1.50;99.90
49236;DHT22;35067;48.134;8.378;2022-11-25T06:30:33;1.70;99.90
49236;DHT22;35067;48.134;8.378;2022-11-25T06:32:34;1.60;99.90
49236;DHT22;35067;48.134;8.378;2022-11-25T06:34:35;1.70;99.90
49236;DHT22;35067;48.134;8.378;2022-11-25T06:36:36;1.70;99.90
49236;DHT22;35067;48.134;8.378;2022-11-25T06:38:37;1.70;99.90
49236;DHT22;35067;48.134;8.378;2022-11-25T06:40:37;1.70;99.90
49236;DHT22;35067;48.134;8.378;2022-11-25T06:42:38;1.80;99.90
49236;DHT22;35067;48.134;8.378;2022-11-25T06:44:39;1.80;99.90
49236;DHT22;35067;48.134;8.378;2022-11-25T06:46:40;1.90;99.90
49236;DHT22;35067;48.134;8.378;2022-11-25T06:48:40;1.90;99.90
49236;DHT22;35067;48.134;8.378;2022-11-25T06:50:41;1.80;99.90
49236;DHT22;35067;48.134;8.378;2022-11-25T06:52:42;1.80;99.90
49236;DHT22;35067;48.134;8.378;2022-11-25T06:54:42;1.60;99.90
49236;DHT22;35067;48.134;8.378;2022-11-25T06:56:44;1.70;99.90
49236;DHT22;35067;48.134;8.378;2022-11-25T06:58:51;1.60;99.90
49236;DHT22;35067;48.134;8.378;2022-11-25T07:00:52;1.80;99.90
49236;DHT22;35067;48.134;8.378;2022-11-25T07:02:52;1.80;99.90
49236;DHT22;35067;48.134;8.378;2022-11-25T07:04:53;1.90;99.90
49236;DHT22;35067;48.134;8.378;2022-11-25T07:06:54;1.90;99.90
49236;DHT22;35067;48.134;8.378;2022-11-25T07:08:55;1.80;99.90
49236;DHT22;35067;48.134;8.378;2022-11-25T07:11:05;1.80;99.90
49236;DHT22;35067;48.134;8.378;2022-11-25T07:13:15;2.00;99.90
49236;DHT22;35067;48.134;8.378;2022-11-25T07:15:16;2.10;99.90
49236;DHT22;35067;48.134;8.378;2022-11-25T07:17:17;2.20;99.90
49236;DHT22;35067;48.134;8.378;2022-11-25T07:19:18;2.20;99.90
49236;DHT22;35067;48.134;8.378;2022-11-25T07:21:23;2.20;99.90
49236;DHT22;35067;48.134;8.378;2022-11-25T07:23:24;2.40;99.90
49236;DHT22;35067;48.134;8.378;2022-11-25T07:25:25;2.50;99.90
49236;DHT22;35067;48.134;8.378;2022-11-25T07:27:25;2.50;99.90
49236;DHT22;35067;48.134;8.378;2022-11-25T07:29:26;2.50;99.90
49236;DHT22;35067;48.134;8.378;2022-11-25T07:31:29;2.60;99.90
49236;DHT22;35067;48.134;8.378;2022-11-25T07:33:35;2.50;99.90
49236;DHT22;35067;48.134;8.378;2022-11-25T07:35:36;2.50;99.90
49236;DHT22;35067;48.134;8.378;2022-11-25T07:37:37;2.50;99.90
49236;DHT22;35067;48.134;8.378;2022-11-25T07:39:38;2.60;99.90
49236;DHT22;35067;48.134;8.378;2022-11-25T07:41:38;2.50;99.90
49236;DHT22;35067;48.134;8.378;2022-11-25T07:43:44;2.50;99.90
49236;DHT22;35067;48.134;8.378;2022-11-25T07:45:45;2.60;99.90
49236;DHT22;35067;48.134;8.378;2022-11-25T07:47:45;2.70;99.90
49236;DHT22;35067;48.134;8.378;2022-11-25T07:49:46;2.80;99.90
49236;DHT22;35067;48.134;8.378;2022-11-25T07:51:55;2.90;99.90
49236;DHT22;35067;48.134;8.378;2022-11-25T07:54:00;3.00;99.90
49236;DHT22;35067;48.134;8.378;2022-11-25T07:56:01;3.20;99.90
49236;DHT22;35067;48.134;8.378;2022-11-25T07:58:02;3.40;99.90
49236;DHT22;35067;48.134;8.378;2022-11-25T08:00:03;3.40;99.90
49236;DHT22;35067;48.134;8.378;2022-11-25T08:02:05;3.50;99.90
49236;DHT22;35067;48.134;8.378;2022-11-25T08:04:07;3.50;99.90
49236;DHT22;35067;48.134;8.378;2022-11-25T08:06:11;3.70;99.90
49236;DHT22;35067;48.134;8.378;2022-11-25T08:08:14;3.80;99.90
49236;DHT22;35067;48.134;8.378;2022-11-25T08:10:14;3.90;99.90
49236;DHT22;35067;48.134;8.378;2022-11-25T08:12:15;4.00;99.90
49236;DHT22;35067;48.134;8.378;2022-11-25T08:14:16;4.10;99.90
49236;DHT22;35067;48.134;8.378;2022-11-25T08:16:19;4.40;99.90
49236;DHT22;35067;48.134;8.378;2022-11-25T08:18:22;4.60;99.90
49236;DHT22;35067;48.134;8.378;2022-11-25T08:20:22;4.90;99.90
49236;DHT22;35067;48.134;8.378;2022-11-25T08:22:23;5.10;99.90
49236;DHT22;35067;48.134;8.378;2022-11-25T08:24:24;5.30;99.90
49236;DHT22;35067;48.134;8.378;2022-11-25T08:26:27;5.40;99.90
49236;DHT22;35067;48.134;8.378;2022-11-25T08:28:34;5.50;99.90
49236;DHT22;35067;48.134;8.378;2022-11-25T08:30:35;5.70;99.90
49236;DHT22;35067;48.134;8.378;2022-11-25T08:32:37;5.70;99.90
49236;DHT22;35067;48.134;8.378;2022-11-25T08:34:38;6.00;99.90
49236;DHT22;35067;48.134;8.378;2022-11-25T08:36:38;6.20;99.90
49236;DHT22;35067;48.134;8.378;2022-11-25T08:38:39;6.40;99.90
49236;DHT22;35067;48.134;8.378;2022-11-25T08:40:42;6.60;99.90
49236;DHT22;35067;48.134;8.378;2022-11-25T08:42:43;6.80;99.90
49236;DHT22;35067;48.134;8.378;2022-11-25T08:44:44;7.10;99.90
49236;DHT22;35067;48.134;8.378;2022-11-25T08:46:45;7.20;99.90
49236;DHT22;35067;48.134;8.378;2022-11-25T08:48:45;7.30;99.90
49236;DHT22;35067;48.134;8.378;2022-11-25T08:50:50;7.40;99.90
49236;DHT22;35067;48.134;8.378;2022-11-25T08:52:53;7.60;99.90
49236;DHT22;35067;48.134;8.378;2022-11-25T08:54:54;7.70;99.90
49236;DHT22;35067;48.134;8.378;2022-11-25T08:56:55;7.80;99.90
49236;DHT22;35067;48.134;8.378;2022-11-25T08:58:56;7.90;99.90
49236;DHT22;35067;48.134;8.378;2022-11-25T09:00:56;7.90;99.90
49236;DHT22;35067;48.134;8.378;2022-11-25T09:02:57;7.80;99.90
49236;DHT22;35067;48.134;8.378;2022-11-25T09:04:58;7.80;99.90
49236;DHT22;35067;48.134;8.378;2022-11-25T09:07:00;7.80;99.90
49236;DHT22;35067;48.134;8.378;2022-11-25T09:09:01;7.80;99.90
49236;DHT22;35067;48.134;8.378;2022-11-25T09:11:02;7.80;99.90
49236;DHT22;35067;48.134;8.378;2022-11-25T09:13:04;7.40;99.90
49236;DHT22;35067;48.134;8.378;2022-11-25T09:15:05;7.40;99.90
49236;DHT22;35067;48.134;8.378;2022-11-25T09:17:10;7.50;99.90
49236;DHT22;35067;48.134;8.378;2022-11-25T09:19:11;7.40;99.90
49236;DHT22;35067;48.134;8.378;2022-11-25T09:21:15;7.50;99.90
49236;DHT22;35067;48.134;8.378;2022-11-25T09:23:17;7.50;99.90
49236;DHT22;35067;48.134;8.378;2022-11-25T09:25:22;7.40;99.90
49236;DHT22;35067;48.134;8.378;2022-11-25T09:27:22;7.40;99.90
49236;DHT22;35067;48.134;8.378;2022-11-25T09:29:23;7.50;99.90
49236;DHT22;35067;48.134;8.378;2022-11-25T09:31:25;7.80;99.90
49236;DHT22;35067;48.134;8.378;2022-11-25T09:33:26;7.60;99.90
49236;DHT22;35067;48.134;8.378;2022-11-25T09:35:27;7.40;99.90
49236;DHT22;35067;48.134;8.378;2022-11-25T09:37:27;7.30;99.90
49236;DHT22;35067;48.134;8.378;2022-11-25T09:39:28;7.30;99.90
49236;DHT22;35067;48.134;8.378;2022-11-25T09:44:47;7.20;99.90
49236;DHT22;35067;48.134;8.378;2022-11-25T09:47:26;7.20;99.90
49236;DHT22;35067;48.134;8.378;2022-11-25T09:52:35;7.10;99.90
49236;DHT22;35067;48.134;8.378;2022-11-25T09:54:44;7.20;99.90
49236;DHT22;35067;48.134;8.378;2022-11-25T09:56:54;7.20;99.90
49236;DHT22;35067;48.134;8.378;2022-11-25T09:59:28;7.20;99.90
49236;DHT22;35067;48.134;8.378;2022-11-25T10:01:45;7.30;99.90
49236;DHT22;35067;48.134;8.378;2022-11-25T10:04:09;7.50;99.90
49236;DHT22;35067;48.134;8.378;2022-11-25T10:06:24;7.70;99.90
49236;DHT22;35067;48.134;8.378;2022-11-25T10:08:32;8.10;99.90
49236;DHT22;35067;48.134;8.378;2022-11-25T10:10:45;8.10;99.00
49236;DHT22;35067;48.134;8.378;2022-11-25T10:12:48;8.00;99.80
49236;DHT22;35067;48.134;8.378;2022-11-25T10:14:59;7.90;99.90
49236;DHT22;35067;48.134;8.378;2022-11-25T10:21:56;8.10;99.90
49236;DHT22;35067;48.134;8.378;2022-11-25T10:23:57;7.90;99.90
49236;DHT22;35067;48.134;8.378;2022-11-25T10:26:02;7.90;99.90
49236;DHT22;35067;48.134;8.378;2022-11-25T10:28:21;8.00;99.90
49236;DHT22;35067;48.134;8.378;2022-11-25T10:30:45;8.20;99.40
49236;DHT22;35067;48.134;8.378;2022-11-25T10:35:27;8.20;98.60
49236;DHT22;35067;48.134;8.378;2022-11-25T10:37:39;8.40;99.10
49236;DHT22;35067;48.134;8.378;2022-11-25T10:39:42;8.40;98.40
49236;DHT22;35067;48.134;8.378;2022-11-25T10:41:58;8.50;98.30
49236;DHT22;35067;48.134;8.378;2022-11-25T10:44:28;8.50;97.50
49236;DHT22;35067;48.134;8.378;2022-11-25T10:46:45;8.60;97.40
49236;DHT22;35067;48.134;8.378;2022-11-25T10:49:21;8.50;96.90
49236;DHT22;35067;48.134;8.378;2022-11-25T10:54:20;8.60;97.30
49236;DHT22;35067;48.134;8.378;2022-11-25T10:56:28;8.80;97.30
49236;DHT22;35067;48.134;8.378;2022-11-25T10:58:37;8.90;96.50
49236;DHT22;35067;48.134;8.378;2022-11-25T11:00:38;8.80;96.90
49236;DHT22;35067;48.134;8.378;2022-11-25T11:02:40;8.80;97.50
49236;DHT22;35067;48.134;8.378;2022-11-25T11:05:01;8.90;96.60
49236;DHT22;35067;48.134;8.378;2022-11-25T11:07:08;8.80;97.20
49236;DHT22;35067;48.134;8.378;2022-11-25T11:09:34;8.70;97.50
49236;DHT22;35067;48.134;8.378;2022-11-25T11:11:47;8.80;97.60
49236;DHT22;35067;48.134;8.378;2022-11-25T11:13:49;8.90;97.00
49236;DHT22;35067;48.134;8.378;2022-11-25T11:15:57;9.00;97.00
49236;DHT22;35067;48.134;8.378;2022-11-25T11:20:35;9.00;97.10
49236;DHT22;35067;48.134;8.378;2022-11-25T11:22:45;9.00;97.30
49236;DHT22;35067;48.134;8.378;2022-11-25T11:25:23;8.90;97.50
49236;DHT22;35067;48.134;8.378;2022-11-25T11:27:28;9.00;97.20
49236;DHT22;35067;48.134;8.378;2022-11-25T11:29:29;9.00;96.80
49236;DHT22;35067;48.134;8.378;2022-11-25T11:31:37;9.00;97.10
49236;DHT22;35067;48.134;8.378;2022-11-25T11:33:47;8.90;97.30
49236;DHT22;35067;48.134;8.378;2022-11-25T11:41:14;9.00;97.90
49236;DHT22;35067;48.134;8.378;2022-11-25T11:49:18;8.60;99.90
49236;DHT22;35067;48.134;8.378;2022-11-25T11:54:17;8.40;99.90
49236;DHT22;35067;48.134;8.378;2022-11-25T11:57:02;8.50;99.90
49236;DHT22;35067;48.134;8.378;2022-11-25T12:12:31;8.10;99.90
49236;DHT22;35067;48.134;8.378;2022-11-25T12:14:42;8.10;99.90
49236;DHT22;35067;48.134;8.378;2022-11-25T12:16:52;8.20;99.90
49236;DHT22;35067;48.134;8.378;2022-11-25T12:21:18;8.40;99.90
49236;DHT22;35067;48.134;8.378;2022-11-25T12:23:48;8.30;99.90
49236;DHT22;35067;48.134;8.378;2022-11-25T12:26:00;8.50;99.90
49236;DHT22;35067;48.134;8.378;2022-11-25T12:28:24;8.70;99.90
49236;DHT22;35067;48.134;8.378;2022-11-25T12:31:18;8.50;99.90
49236;DHT22;35067;48.134;8.378;2022-11-25T12:33:25;8.40;99.90
49236;DHT22;35067;48.134;8.378;2022-11-25T12:35:39;8.30;99.90
49236;DHT22;35067;48.134;8.378;2022-11-25T12:42:32;8.10;99.90
49236;DHT22;35067;48.134;8.378;2022-11-25T12:44:39;8.00;99.90
49236;DHT22;35067;48.134;8.378;2022-11-25T12:46:55;7.90;99.90
49236;DHT22;35067;48.134;8.378;2022-11-25T12:48:57;8.00;99.90
49236;DHT22;35067;48.134;8.378;2022-11-25T12:53:36;7.70;99.90
49236;DHT22;35067;48.134;8.378;2022-11-25T12:55:42;7.30;99.90
49236;DHT22;35067;48.134;8.378;2022-11-25T13:00:18;6.90;99.90
49236;DHT22;35067;48.134;8.378;2022-11-25T13:07:26;6.60;99.90
49236;DHT22;35067;48.134;8.378;2022-11-25T13:15:03;6.40;99.90
49236;DHT22;35067;48.134;8.378;2022-11-25T13:17:10;6.20;99.90
49236;DHT22;35067;48.134;8.378;2022-11-25T13:19:16;6.20;99.90
49236;DHT22;35067;48.134;8.378;2022-11-25T13:21:18;6.30;99.90
49236;DHT22;35067;48.134;8.378;2022-11-25T13:25:26;6.50;99.90
49236;DHT22;35067;48.134;8.378;2022-11-25T13:31:55;6.50;99.90
49236;DHT22;35067;48.134;8.378;2022-11-25T13:36:22;6.50;99.90
49236;DHT22;35067;48.134;8.378;2022-11-25T13:38:36;6.50;99.90
49236;DHT22;35067;48.134;8.378;2022-11-25T13:43:20;6.40;99.90
49236;DHT22;35067;48.134;8.378;2022-11-25T13:45:40;6.40;99.90
49236;DHT22;35067;48.134;8.378;2022-11-25T13:47:47;6.50;99.90
49236;DHT22;35067;48.134;8.378;2022-11-25T13:54:16;6.70;99.90
49236;DHT22;35067;48.134;8.378;2022-11-25T13:56:32;6.80;99.90
49236;DHT22;35067;48.134;8.378;2022-11-25T13:58:34;7.00;99.90
49236;DHT22;35067;48.134;8.378;2022-11-25T14:02:39;6.90;99.90
49236;DHT22;35067;48.134;8.378;2022-11-25T14:10:30;7.40;99.90
49236;DHT22;35067;48.134;8.378;2022-11-25T14:17:29;7.30;99.90
49236;DHT22;35067;48.134;8.378;2022-11-25T14:20:08;7.20;99.90
49236;DHT22;35067;48.134;8.378;2022-11-25T14:23:00;7.10;99.90
49236;DHT22;35067;48.134;8.378;2022-11-25T14:27:28;6.90;99.90
49236;DHT22;35067;48.134;8.378;2022-11-25T14:30:05;6.80;99.90
49236;DHT22;35067;48.134;8.378;2022-11-25T14:32:14;7.00;99.90
49236;DHT22;35067;48.134;8.378;2022-11-25T14:34:27;6.80;99.90
49236;DHT22;35067;48.134;8.378;2022-11-25T14:36:42;6.70;99.90
49236;DHT22;35067;48.134;8.378;2022-11-25T14:38:55;6.90;99.90
49236;DHT22;35067;48.134;8.378;2022-11-25T14:41:10;6.80;99.90
49236;DHT22;35067;48.134;8.378;2022-11-25T14:43:19;6.80;99.90
49236;DHT22;35067;48.134;8.378;2022-11-25T14:45:25;6.70;99.90
49236;DHT22;35067;48.134;8.378;2022-11-25T14:47:30;6.50;99.90
49236;DHT22;35067;48.134;8.378;2022-11-25T14:49:53;6.40;99.90
49236;DHT22;35067;48.134;8.378;2022-11-25T14:51:54;6.20;99.90
49236;DHT22;35067;48.134;8.378;2022-11-25T14:53:55;6.20;99.90
49236;DHT22;35067;48.134;8.378;2022-11-25T14:55:57;6.10;99.90
49236;DHT22;35067;48.134;8.378;2022-11-25T14:58:00;6.00;99.90
49236;DHT22;35067;48.134;8.378;2022-11-25T15:00:11;6.00;99.90
49236;DHT22;35067;48.134;8.378;2022-11-25T15:02:30;6.00;99.90
49236;DHT22;35067;48.134;8.378;2022-11-25T15:04:39;6.20;99.90
49236;DHT22;35067;48.134;8.378;2022-11-25T15:06:46;6.30;99.90
49236;DHT22;35067;48.134;8.378;2022-11-25T15:08:57;6.30;99.90